Time;durP1;ratioP1;P1;durP2;ratioP2;P2;SDS_P1;SDS_P2;PMS_P1;PMS_P2;Temp;Humidity;BMP_temperature;BMP_pressure;BME280_temperature;BME280_humidity;BME280_pressure;Samples;Min_cycle;Max_cycle;Signal;HPM_P1;HPM_P2
2022/02/09 00:00:12;;;;;;;42.85;34.58;;;25.10;84.30;;;;;;1909350;72;21135;-85
2022/02/09 00:03:05;;;;;;;41.60;34.05;;;25.10;84.00;;;;;;1892538;73;21201;-85
2022/02/09 00:10:18;;;;;;;41.30;34.18;;;25.10;84.50;;;;;;1916144;74;21161;-86
2022/02/09 00:13:02;;;;;;;48.25;34.65;;;25.10;84.70;;;;;;1880014;74;21221;-85
2022/02/09 00:40:59;;;;;;;39.15;31.25;;;24.90;85.80;;;;;;1904837;74;21109;-85
2022/02/09 00:43:38;;;;;;;40.60;31.93;;;24.90;85.40;;;;;;1907211;73;21204;-86
2022/02/09 01:51:12;;;;;;;41.60;30.15;;;25.70;85.20;;;;;;1886413;74;21221;-73
2022/02/09 01:56:52;;;;;;;38.00;28.07;;;25.70;84.50;;;;;;1910683;73;21699;-73
2022/02/09 01:59:23;;;;;;;32.10;26.00;;;25.80;84.70;;;;;;1903929;73;21074;-73
2022/02/09 02:01:54;;;;;;;30.25;24.05;;;25.80;84.30;;;;;;1900327;73;21068;-73
2022/02/09 02:04:25;;;;;;;33.40;25.35;;;25.90;84.10;;;;;;1902918;74;21155;-73
2022/02/09 02:06:56;;;;;;;28.95;23.98;;;25.90;83.80;;;;;;1902803;74;21105;-72
2022/02/09 02:09:32;;;;;;;30.45;25.65;;;25.90;83.60;;;;;;1906252;73;21143;-73
2022/02/09 02:12:09;;;;;;;33.30;24.72;;;26.00;83.70;;;;;;1873271;75;21057;-74
2022/02/09 02:14:39;;;;;;;31.50;25.12;;;26.00;83.60;;;;;;1890571;75;21765;-73
2022/02/09 02:19:44;;;;;;;38.08;26.62;;;26.10;83.70;;;;;;1902772;73;21173;-74
2022/02/09 02:22:30;;;;;;;34.65;25.65;;;26.10;83.60;;;;;;1913567;73;21142;-73
2022/02/09 02:27:24;;;;;;;35.88;26.20;;;26.20;83.30;;;;;;1897613;73;21201;-73
2022/02/09 03:13:07;;;;;;;34.05;25.35;;;27.00;81.50;;;;;;1909259;74;21222;-75
2022/02/09 03:20:39;;;;;;;30.60;24.70;;;27.30;80.40;;;;;;1897429;73;21745;-75
2022/02/09 03:23:15;;;;;;;31.80;25.52;;;27.30;80.30;;;;;;1906828;74;21194;-74
2022/02/09 03:25:56;;;;;;;34.95;25.17;;;27.40;80.40;;;;;;1845873;76;21249;-74
2022/02/09 03:43:56;;;;;;;27.82;22.98;;;27.90;78.60;;;;;;1888198;75;21153;-72
2022/02/09 03:46:16;;;;;;;29.63;22.95;;;28.00;78.60;;;;;;1902909;74;21132;-74
2022/02/09 03:48:44;;;;;;;31.15;22.73;;;28.00;78.50;;;;;;1887056;73;22620;-74
2022/02/09 03:53:52;;;;;;;25.55;22.62;;;28.20;77.80;;;;;;1915111;73;21242;-74
2022/02/09 03:56:27;;;;;;;30.27;23.57;;;28.30;77.50;;;;;;1903307;73;21062;-74
2022/02/09 03:58:37;;;;;;;28.70;22.22;;;28.40;77.80;;;;;;1837932;74;21153;-75
2022/02/09 04:01:10;;;;;;;27.95;22.13;;;28.50;77.80;;;;;;1851580;76;21126;-74
2022/02/09 04:03:40;;;;;;;30.65;22.52;;;28.50;77.10;;;;;;1837154;76;21146;-74
2022/02/09 04:06:11;;;;;;;25.90;22.10;;;28.60;77.00;;;;;;1902643;74;21184;-75
2022/02/09 04:08:50;;;;;;;26.77;21.15;;;28.60;75.70;;;;;;1911403;73;21125;-76
2022/02/09 04:11:29;;;;;;;24.87;20.08;;;28.70;75.90;;;;;;1910711;73;21053;-74
2022/02/09 04:44:36;;;;;;;26.20;19.45;;;30.10;71.80;;;;;;1896895;75;21085;-88
2022/02/09 04:54:39;;;;;;;21.62;18.12;;;30.40;70.60;;;;;;1912910;73;21505;-88
2022/02/09 04:57:12;;;;;;;25.37;18.52;;;30.50;70.50;;;;;;1888849;75;21132;-88
2022/02/09 05:02:39;;;;;;;24.82;18.98;;;30.80;68.70;;;;;;1905819;74;21198;-88
2022/02/09 05:22:58;;;;;;;21.87;18.02;;;31.40;67.30;;;;;;1867792;76;21060;-88
2022/02/09 05:25:40;;;;;;;24.50;18.40;;;31.40;65.70;;;;;;1886123;75;21123;-87
2022/02/09 05:28:11;;;;;;;21.27;17.42;;;31.50;65.30;;;;;;1884729;75;21166;-87
2022/02/09 05:30:36;;;;;;;23.22;18.12;;;31.60;64.90;;;;;;1887556;74;21149;-87
2022/02/09 05:33:08;;;;;;;20.17;17.20;;;31.60;65.50;;;;;;1886962;74;21113;-87
2022/02/09 05:35:43;;;;;;;23.38;18.25;;;31.60;65.40;;;;;;1897338;74;21147;-87
2022/02/09 05:38:14;;;;;;;21.07;17.90;;;31.70;65.80;;;;;;1887339;74;21695;-74
2022/02/09 05:40:46;;;;;;;20.10;16.85;;;31.70;65.30;;;;;;1887102;74;21144;-74
2022/02/09 05:43:18;;;;;;;20.92;17.52;;;31.80;65.20;;;;;;1889480;73;21164;-75
2022/02/09 05:46:10;;;;;;;25.23;18.90;;;31.80;65.20;;;;;;1883766;74;21618;-73
2022/02/09 05:51:01;;;;;;;23.90;18.90;;;31.80;65.10;;;;;;1869454;74;21154;-74
2022/02/09 05:53:37;;;;;;;22.87;19.12;;;31.80;64.90;;;;;;1884311;74;21119;-75
2022/02/09 06:01:01;;;;;;;28.32;18.85;;;31.80;64.60;;;;;;1849227;77;21084;-74
2022/02/09 06:03:32;;;;;;;21.35;18.98;;;31.70;64.30;;;;;;1876041;76;21068;-74
2022/02/09 06:06:03;;;;;;;19.87;17.75;;;31.70;63.90;;;;;;1880334;74;21140;-74
2022/02/09 06:08:34;;;;;;;24.52;19.77;;;31.70;64.30;;;;;;1885206;74;21237;-75
2022/02/09 06:11:12;;;;;;;22.62;18.37;;;31.70;64.30;;;;;;1872661;76;21626;-73
2022/02/09 06:21:18;;;;;;;24.50;19.35;;;31.70;62.80;;;;;;1881600;74;21192;-73
2022/02/09 06:23:47;;;;;;;23.85;19.37;;;31.80;62.60;;;;;;1875867;74;21597;-74
2022/02/09 06:26:18;;;;;;;23.47;19.95;;;31.90;62.50;;;;;;1884883;76;21629;-73
2022/02/09 06:28:49;;;;;;;25.20;18.82;;;32.00;63.10;;;;;;1878896;75;21102;-73
2022/02/09 06:31:19;;;;;;;22.25;18.05;;;;;;;;;;1879717;74;21142;-73
2022/02/09 06:33:51;;;;;;;23.65;19.87;;;32.10;61.10;;;;;;1852145;76;21543;-74
2022/02/09 06:36:24;;;;;;;26.62;18.90;;;32.00;61.80;;;;;;1845043;75;21951;-75
2022/02/09 06:38:55;;;;;;;21.30;18.55;;;32.00;60.90;;;;;;1891367;74;21076;-73
2022/02/09 06:41:25;;;;;;;24.18;19.92;;;32.00;60.80;;;;;;1876404;75;21080;-74
2022/02/09 06:43:56;;;;;;;23.02;19.65;;;32.00;61.00;;;;;;1881356;75;21142;-73
2022/02/09 06:46:33;;;;;;;25.55;18.75;;;32.10;62.10;;;;;;1884122;75;21550;-73
2022/02/09 06:49:07;;;;;;;22.77;18.70;;;32.10;62.60;;;;;;1875445;75;21115;-74
2022/02/09 06:51:36;;;;;;;19.50;17.57;;;32.10;61.30;;;;;;1870553;76;21511;-73
2022/02/09 06:56:57;;;;;;;21.87;17.85;;;32.10;61.00;;;;;;1880078;74;21570;-72
2022/02/09 06:59:21;;;;;;;21.73;18.20;;;32.10;60.30;;;;;;1876558;75;21271;-74
2022/02/09 07:01:45;;;;;;;20.68;18.07;;;32.20;60.50;;;;;;1837056;77;21158;-73
2022/02/09 07:04:16;;;;;;;22.30;17.37;;;32.20;60.40;;;;;;1887473;76;21192;-74
2022/02/09 07:06:47;;;;;;;20.65;17.25;;;32.20;60.80;;;;;;1885053;76;21590;-74
2022/02/09 07:09:18;;;;;;;20.45;16.95;;;32.20;60.50;;;;;;1864071;75;22047;-74
2022/02/09 07:11:49;;;;;;;20.65;17.45;;;32.20;60.90;;;;;;1880814;75;21602;-74
2022/02/09 07:14:24;;;;;;;19.30;16.75;;;32.20;60.00;;;;;;1879862;74;21107;-74
2022/02/09 07:16:52;;;;;;;18.90;16.90;;;32.30;59.00;;;;;;1882319;75;21216;-75
2022/02/09 07:19:25;;;;;;;18.55;16.55;;;32.40;59.60;;;;;;1869295;75;21191;-75
2022/02/09 07:21:57;;;;;;;21.20;16.90;;;32.30;58.00;;;;;;1834932;76;21675;-75
2022/02/09 07:24:30;;;;;;;21.77;16.65;;;32.40;58.20;;;;;;1847101;77;21516;-74
2022/02/09 07:29:32;;;;;;;18.50;16.00;;;32.40;57.90;;;;;;1862541;76;21079;-74
2022/02/09 07:32:03;;;;;;;17.80;15.93;;;32.40;58.50;;;;;;1878718;75;21186;-73
2022/02/09 07:34:34;;;;;;;18.17;15.95;;;32.30;57.30;;;;;;1883478;76;21087;-74
2022/02/09 07:37:06;;;;;;;20.30;16.62;;;32.40;57.50;;;;;;1871101;75;21768;-75
2022/02/09 07:39:38;;;;;;;19.12;16.67;;;32.40;57.60;;;;;;1862318;75;21130;-72
2022/02/09 07:42:12;;;;;;;18.25;14.98;;;32.40;57.50;;;;;;1892334;74;21509;-73
2022/02/09 07:44:55;;;;;;;18.77;15.28;;;32.40;57.00;;;;;;1867324;74;21199;-74
2022/02/09 07:52:26;;;;;;;19.77;17.37;;;32.40;57.80;;;;;;1879855;74;21423;-73
2022/02/09 07:54:57;;;;;;;19.42;17.27;;;32.50;57.70;;;;;;1872341;74;21599;-74
2022/02/09 07:57:27;;;;;;;24.65;15.80;;;32.40;57.90;;;;;;1875703;74;21636;-73
2022/02/09 07:59:58;;;;;;;17.45;14.98;;;32.40;56.80;;;;;;1892843;76;21169;-74
2022/02/09 08:02:30;;;;;;;17.82;15.28;;;32.40;58.10;;;;;;1884406;75;21131;-75
2022/02/09 08:05:01;;;;;;;19.98;15.68;;;32.40;57.40;;;;;;1879293;75;21133;-74
2022/02/09 08:07:32;;;;;;;21.12;16.25;;;32.30;57.20;;;;;;1865952;74;21167;-74
2022/02/09 08:10:03;;;;;;;21.35;16.05;;;32.40;56.60;;;;;;1885782;74;21142;-73
2022/02/09 08:30:32;;;;;;;15.80;14.18;;;32.30;55.70;;;;;;1881785;75;21120;-72
2022/02/09 08:33:04;;;;;;;15.50;13.90;;;32.30;56.00;;;;;;1861871;74;21150;-73
2022/02/09 08:35:24;;;;;;;18.37;14.33;;;32.30;56.50;;;;;;1871358;75;21130;-73
2022/02/09 08:37:57;;;;;;;15.38;13.65;;;32.30;56.00;;;;;;1874061;74;21611;-72
2022/02/09 08:40:29;;;;;;;15.35;13.32;;;32.30;55.20;;;;;;1886288;74;21170;-73
2022/02/09 08:43:05;;;;;;;15.58;13.22;;;32.30;54.50;;;;;;1879245;74;21201;-73
2022/02/09 08:45:33;;;;;;;15.38;12.98;;;32.30;54.70;;;;;;1895460;74;21630;-72
2022/02/09 08:48:08;;;;;;;16.80;13.32;;;32.20;54.50;;;;;;1888709;74;21629;-73
2022/02/09 08:50:39;;;;;;;16.30;14.18;;;32.20;54.90;;;;;;1877773;75;21205;-74
2022/02/09 08:53:09;;;;;;;18.32;13.55;;;32.20;54.40;;;;;;1872843;75;21185;-75
2022/02/09 08:55:41;;;;;;;21.90;16.05;;;32.20;55.10;;;;;;1885219;75;21150;-75
2022/02/09 08:58:13;;;;;;;17.92;14.73;;;32.20;55.60;;;;;;1876482;74;21158;-75
2022/02/09 09:00:44;;;;;;;16.93;14.68;;;32.20;55.20;;;;;;1884491;76;21158;-75
2022/02/09 09:03:20;;;;;;;19.48;15.45;;;32.20;55.60;;;;;;1883599;75;21151;-75
2022/02/09 09:05:50;;;;;;;18.75;14.93;;;32.20;55.30;;;;;;1878327;75;21111;-76
2022/02/09 10:02:23;;;;;;;15.55;13.65;;;31.70;54.90;;;;;;1875694;75;21715;-74
2022/02/09 10:33:15;;;;;;;17.52;14.68;;;31.40;56.70;;;;;;1891689;74;21252;-83
2022/02/09 10:36:01;;;;;;;15.98;14.23;;;31.40;56.60;;;;;;1900382;75;21118;-82
2022/02/09 10:38:22;;;;;;;19.50;14.78;;;31.30;56.60;;;;;;1909407;74;21627;-82
2022/02/09 10:40:54;;;;;;;18.57;16.32;;;31.30;56.70;;;;;;1887007;76;21150;-84
2022/02/09 10:43:33;;;;;;;19.40;15.25;;;31.20;56.60;;;;;;1884774;74;21132;-81
2022/02/09 10:46:02;;;;;;;17.77;15.80;;;31.20;56.70;;;;;;1887874;74;21037;-83
2022/02/09 10:48:38;;;;;;;20.72;15.13;;;31.20;57.10;;;;;;1887294;76;21182;-83
2022/02/09 10:51:09;;;;;;;20.80;16.12;;;31.10;57.50;;;;;;1906361;74;21625;-84
2022/02/09 10:53:40;;;;;;;19.10;16.57;;;31.10;57.60;;;;;;1909680;74;21221;-85
2022/02/09 10:56:21;;;;;;;17.00;15.00;;;31.00;57.80;;;;;;1887243;76;21149;-81
2022/02/09 10:58:54;;;;;;;17.92;15.32;;;31.00;57.80;;;;;;1883322;75;21644;-83
2022/02/09 11:01:26;;;;;;;18.65;15.58;;;31.00;58.00;;;;;;1888509;75;21971;-82
2022/02/09 11:03:58;;;;;;;21.45;16.32;;;30.90;58.10;;;;;;1887846;74;21055;-82
2022/02/09 11:06:31;;;;;;;20.55;17.82;;;30.90;58.30;;;;;;1886949;74;21129;-80
2022/02/09 11:09:04;;;;;;;24.00;17.12;;;30.90;58.50;;;;;;1895064;74;21151;-90
2022/02/09 11:11:41;;;;;;;24.37;16.95;;;30.90;58.60;;;;;;1888975;74;21588;-88
2022/02/09 11:14:13;;;;;;;19.17;16.12;;;30.80;58.80;;;;;;1894442;73;21073;-89
2022/02/09 11:16:48;;;;;;;18.55;16.52;;;30.80;58.90;;;;;;1888045;74;21677;-89
2022/02/09 11:19:19;;;;;;;24.72;16.07;;;30.70;59.10;;;;;;1864034;74;21167;-88
2022/02/09 11:21:51;;;;;;;39.55;18.40;;;30.70;59.30;;;;;;1888629;74;21086;-88
2022/02/09 11:24:26;;;;;;;29.35;17.52;;;30.70;59.20;;;;;;1887486;75;21082;-89
2022/02/09 11:27:08;;;;;;;46.53;24.43;;;30.60;59.30;;;;;;1893740;74;21141;-89
2022/02/09 11:29:52;;;;;;;28.83;19.02;;;30.60;59.50;;;;;;1889371;74;21126;-89
2022/02/09 11:34:45;;;;;;;27.48;18.73;;;30.60;59.70;;;;;;1895042;75;21080;-90
2022/02/09 11:37:26;;;;;;;35.20;22.85;;;30.50;59.80;;;;;;1886119;74;21125;-87
2022/02/09 11:39:52;;;;;;;48.45;25.92;;;30.50;60.00;;;;;;1890901;75;21228;-88
2022/02/09 11:42:26;;;;;;;45.90;25.57;;;30.50;60.20;;;;;;1892240;74;21090;-85
2022/02/09 11:45:13;;;;;;;42.58;22.40;;;30.50;60.40;;;;;;1888459;75;21040;-85
2022/02/09 11:50:49;;;;;;;25.77;18.90;;;30.40;60.60;;;;;;1897680;71;21131;-87
2022/02/09 12:11:27;;;;;;;29.77;19.67;;;30.20;61.70;;;;;;1853484;77;21126;-90
2022/02/09 12:16:33;;;;;;;24.95;19.80;;;30.10;62.10;;;;;;1825668;77;21138;-90
2022/02/09 12:18:55;;;;;;;26.27;20.57;;;30.10;62.40;;;;;;1820446;78;21157;-89
2022/02/09 12:21:39;;;;;;;30.82;21.17;;;30.00;62.50;;;;;;1849015;77;21145;-90
2022/02/09 12:23:59;;;;;;;29.90;23.00;;;30.10;62.80;;;;;;1844049;76;21569;-90
2022/02/09 12:26:30;;;;;;;30.17;22.70;;;30.00;62.90;;;;;;1835604;77;21185;-86
2022/02/09 12:29:01;;;;;;;31.57;20.45;;;30.00;63.10;;;;;;1826391;77;21183;-83
2022/02/09 12:31:33;;;;;;;29.87;20.92;;;30.00;63.40;;;;;;1845646;75;21218;-82
2022/02/09 12:34:04;;;;;;;25.77;21.42;;;30.00;63.30;;;;;;1886508;74;21079;-83
2022/02/09 12:36:37;;;;;;;27.10;21.30;;;29.90;63.40;;;;;;1875501;75;21842;-83
2022/02/09 12:39:09;;;;;;;27.82;21.23;;;29.90;63.50;;;;;;1887271;75;21496;-84
2022/02/09 12:41:40;;;;;;;27.52;21.30;;;29.90;63.70;;;;;;1881962;75;21147;-84
2022/02/09 12:44:10;;;;;;;31.65;21.73;;;29.90;63.90;;;;;;1880986;75;21487;-86
2022/02/09 12:46:44;;;;;;;31.15;22.35;;;29.90;64.20;;;;;;1885962;74;21123;-84
2022/02/09 12:49:16;;;;;;;27.98;21.20;;;29.80;64.20;;;;;;1893720;73;21084;-84
2022/02/09 12:51:50;;;;;;;35.25;24.65;;;29.80;64.20;;;;;;1887578;76;21226;-85
2022/02/09 12:54:21;;;;;;;34.40;23.70;;;29.80;64.20;;;;;;1895761;74;21162;-84
2022/02/09 12:56:56;;;;;;;27.73;22.52;;;29.70;64.10;;;;;;1892585;74;21228;-84
2022/02/09 12:59:33;;;;;;;28.80;23.25;;;29.70;64.40;;;;;;1898457;74;21076;-84
2022/02/09 13:02:04;;;;;;;31.45;23.02;;;29.70;64.60;;;;;;1894890;73;21123;-84
2022/02/09 13:04:47;;;;;;;29.48;22.70;;;29.70;64.70;;;;;;1903431;73;21240;-85
2022/02/09 13:07:18;;;;;;;35.60;24.72;;;29.60;65.00;;;;;;1822863;77;21154;-85
2022/02/09 13:09:53;;;;;;;38.70;28.90;;;29.60;65.60;;;;;;1864345;76;21601;-85
2022/02/09 13:12:25;;;;;;;35.08;26.68;;;29.60;66.00;;;;;;1900135;73;21511;-86
2022/02/09 13:15:09;;;;;;;34.98;26.97;;;29.60;66.30;;;;;;1893218;74;21232;-86
2022/02/09 13:17:41;;;;;;;34.80;25.48;;;29.50;66.60;;;;;;1902490;74;21127;-86
2022/02/09 14:55:18;;;;;;;30.45;22.30;;;29.00;72.30;;;;;;1857431;76;21170;-83
2022/02/09 14:58:05;;;;;;;28.92;22.50;;;29.00;72.10;;;;;;1883788;74;21143;-80
2022/02/09 15:13:33;;;;;;;32.42;24.45;;;29.00;73.00;;;;;;1886996;74;21242;-79
2022/02/09 15:16:16;;;;;;;31.20;22.98;;;28.90;73.00;;;;;;1884968;76;21624;-80
2022/02/09 15:23:34;;;;;;;35.45;24.60;;;28.90;74.10;;;;;;1884111;76;21641;-79
2022/02/09 15:26:06;;;;;;;31.37;25.25;;;28.90;74.60;;;;;;1891491;74;21152;-80
2022/02/09 15:28:37;;;;;;;32.73;25.60;;;28.90;74.70;;;;;;1886950;74;21150;-80
2022/02/09 15:31:27;;;;;;;36.30;25.05;;;28.80;74.90;;;;;;1905730;74;21174;-80
2022/02/09 15:33:47;;;;;;;34.00;24.50;;;28.80;74.60;;;;;;1912852;74;21611;-79
2022/02/09 15:36:25;;;;;;;32.63;24.80;;;28.80;75.70;;;;;;1894736;74;21197;-80
2022/02/09 15:38:49;;;;;;;29.45;23.70;;;28.80;75.60;;;;;;1886154;74;21068;-79
2022/02/09 15:41:27;;;;;;;34.08;24.30;;;28.80;75.80;;;;;;1883436;75;21252;-78
2022/02/09 15:59:22;;;;;;;32.95;26.90;;;28.60;78.70;;;;;;1884964;74;21096;-80
2022/02/09 16:07:56;;;;;;;40.17;27.90;;;28.60;76.90;;;;;;1886805;74;21111;-88
2022/02/09 16:45:30;;;;;;;37.05;26.40;;;28.50;77.40;;;;;;1823199;77;21179;-88
2022/02/09 16:48:08;;;;;;;39.35;28.35;;;28.50;76.40;;;;;;1821818;79;21150;-88
2022/02/09 16:50:40;;;;;;;38.40;27.70;;;28.50;76.80;;;;;;1844773;75;21567;-89
2022/02/09 16:56:21;;;;;;;38.65;27.37;;;28.50;75.30;;;;;;1888156;76;21142;-88
2022/02/09 17:11:15;;;;;;;32.10;26.45;;;28.60;74.60;;;;;;1888152;74;21666;-88
2022/02/09 17:21:15;;;;;;;37.03;28.55;;;28.60;74.80;;;;;;1886081;76;21522;-89
2022/02/09 17:23:47;;;;;;;43.00;30.17;;;28.60;74.60;;;;;;1886605;74;21252;-90
2022/02/09 17:26:18;;;;;;;39.35;29.45;;;28.60;75.30;;;;;;1879693;74;21179;-89
2022/02/09 17:28:57;;;;;;;38.85;29.77;;;28.50;75.30;;;;;;1890476;74;21165;-89
2022/02/09 17:31:32;;;;;;;40.95;29.20;;;28.50;75.60;;;;;;1884699;74;21127;-89
2022/02/09 17:34:40;;;;;;;;;;;;;;;;;;;;;
2022/02/09 17:53:49;;;;;;;42.08;33.70;;;28.10;78.40;;;;;;1710587;81;21327;-89
2022/02/09 17:56:48;;;;;;;49.60;34.05;;;28.10;78.80;;;;;;1743087;77;21245;-88
2022/02/09 17:59:55;;;;;;;;;;;;;;;;;;;;;
2022/02/09 18:02:09;;;;;;;51.53;35.08;;;28.00;78.60;;;;;;1735779;78;20261;-89
2022/02/09 18:08:50;;;;;;;48.10;34.30;;;27.90;79.50;;;;;;1796542;76;21169;-89
2022/02/09 18:44:02;;;;;;;50.35;32.48;;;27.50;80.10;;;;;;1864071;76;21140;-83
2022/02/09 18:46:30;;;;;;;41.80;33.02;;;27.60;79.90;;;;;;1875585;75;21542;-83
2022/02/09 18:56:51;;;;;;;42.60;32.78;;;27.60;79.90;;;;;;1870545;76;21619;-83
2022/02/09 19:04:10;;;;;;;46.58;32.60;;;27.60;80.70;;;;;;1879208;76;21160;-83
2022/02/09 19:14:21;;;;;;;37.48;29.37;;;27.50;81.00;;;;;;1874320;76;21770;-83
2022/02/09 19:50:04;;;;;;;31.27;24.12;;;27.00;82.60;;;;;;1859775;76;21213;-84
2022/02/09 19:52:15;;;;;;;35.60;25.40;;;27.00;82.70;;;;;;1844564;78;21603;-81
2022/02/09 19:57:12;;;;;;;34.33;23.73;;;26.90;82.60;;;;;;1880407;76;21096;-82
2022/02/09 19:59:43;;;;;;;30.12;22.80;;;26.80;82.50;;;;;;1815267;78;21108;-83
2022/02/09 20:02:16;;;;;;;32.58;23.85;;;26.80;82.70;;;;;;1862905;76;21638;-82
2022/02/09 20:04:47;;;;;;;30.60;23.35;;;26.80;83.10;;;;;;1875145;76;21131;-82
2022/02/09 20:07:17;;;;;;;35.60;23.18;;;26.70;82.70;;;;;;1873047;76;21088;-83
2022/02/09 20:09:48;;;;;;;33.13;23.05;;;26.70;82.80;;;;;;1857721;76;21220;-83
2022/02/09 20:12:19;;;;;;;33.02;22.50;;;26.70;83.40;;;;;;1866791;76;21186;-83
2022/02/09 20:14:50;;;;;;;30.95;22.98;;;26.60;83.20;;;;;;1849938;77;21084;-83
2022/02/09 20:17:20;;;;;;;30.30;22.32;;;26.60;83.10;;;;;;1856796;76;21155;-83
2022/02/09 20:19:57;;;;;;;31.45;22.82;;;26.60;83.50;;;;;;1843393;78;21132;-83
2022/02/09 20:22:23;;;;;;;37.00;22.75;;;26.50;83.70;;;;;;1877982;76;21077;-82
2022/02/09 20:24:54;;;;;;;32.90;21.80;;;26.50;83.80;;;;;;1881330;76;21572;-83
2022/02/09 20:27:25;;;;;;;31.97;22.82;;;26.50;84.30;;;;;;1874547;76;21134;-83
2022/02/09 20:29:56;;;;;;;30.12;22.27;;;26.50;84.50;;;;;;1874603;76;21096;-83
2022/02/09 20:32:32;;;;;;;28.47;22.27;;;26.40;84.50;;;;;;1861576;76;21218;-83
2022/02/09 20:35:03;;;;;;;30.90;23.15;;;26.40;84.60;;;;;;1874286;76;21139;-82
2022/02/09 20:37:32;;;;;;;31.35;24.15;;;26.40;84.50;;;;;;1845496;78;21645;-81
2022/02/09 20:40:11;;;;;;;30.12;23.00;;;26.30;84.50;;;;;;1880784;76;21729;-81
2022/02/09 20:42:38;;;;;;;29.52;23.07;;;26.30;84.70;;;;;;1878218;76;21198;-79
2022/02/09 20:45:18;;;;;;;32.20;23.55;;;26.30;84.90;;;;;;1866037;76;21241;-80
2022/02/09 20:47:45;;;;;;;31.10;22.73;;;26.20;84.60;;;;;;1868728;76;21076;-80
2022/02/09 20:50:13;;;;;;;30.52;22.67;;;26.20;85.60;;;;;;1878437;76;21100;-82
2022/02/09 20:52:43;;;;;;;29.25;22.62;;;26.20;84.40;;;;;;1881696;76;21124;-84
2022/02/09 20:55:14;;;;;;;28.83;21.52;;;26.20;84.90;;;;;;1874284;76;21139;-83
2022/02/09 20:57:45;;;;;;;34.48;21.57;;;26.20;84.80;;;;;;1881020;76;21111;-82
2022/02/09 21:00:24;;;;;;;29.70;21.02;;;26.20;84.90;;;;;;1879535;76;21549;-83
2022/02/09 21:05:35;;;;;;;29.23;21.87;;;26.20;84.70;;;;;;1869014;75;21100;-82
2022/02/09 21:08:48;;;;;;;28.80;20.23;;;26.20;84.60;;;;;;1875177;76;21631;-82
2022/02/09 21:10:44;;;;;;;28.65;20.23;;;26.20;84.80;;;;;;1872883;76;21222;-81
2022/02/09 21:13:01;;;;;;;28.80;20.37;;;26.10;84.50;;;;;;1841684;78;21202;-81
2022/02/09 21:15:55;;;;;;;25.50;19.35;;;26.10;84.70;;;;;;1849600;77;21163;-83
2022/02/09 21:56:18;;;;;;;23.47;16.97;;;25.90;86.20;;;;;;1881530;76;21088;-82
2022/02/09 21:58:38;;;;;;;25.92;17.70;;;26.00;86.40;;;;;;1869660;76;21171;-82
2022/02/09 22:01:52;;;;;;;24.65;18.62;;;25.90;86.60;;;;;;1867797;76;21135;-83
2022/02/09 22:16:44;;;;;;;28.23;17.27;;;25.80;87.30;;;;;;1858602;76;21123;-82
2022/02/09 22:49:20;;;;;;;24.00;17.95;;;25.50;89.60;;;;;;1819758;79;21118;-82
2022/02/09 22:56:52;;;;;;;22.95;16.73;;;25.50;88.90;;;;;;1852022;77;21241;-83
2022/02/09 23:01:59;;;;;;;23.50;15.53;;;25.60;88.50;;;;;;1819904;79;22007;-84
2022/02/09 23:12:17;;;;;;;22.20;17.07;;;25.60;87.20;;;;;;1789911;79;21132;-82
2022/02/09 23:53:18;;;;;;;20.10;14.98;;;25.40;86.90;;;;;;1873970;76;21155;-81
